Time;durP1;ratioP1;P1;durP2;ratioP2;P2;SDS_P1;SDS_P2;PMS_P1;PMS_P2;Temp;Humidity;BMP_temperature;BMP_pressure;BME280_temperature;BME280_humidity;BME280_pressure;Samples;Min_cycle;Max_cycle;Signal;HPM_P1;HPM_P2
2023/06/19 00:01:16;;;;;;;16.80;13.40;;;;;;;24.28;59.45;100243.77;105281;1254;63755;-68
2023/06/19 00:03:43;;;;;;;14.70;12.90;;;;;;;24.32;59.76;100242.52;105157;1254;60659;-67
2023/06/19 00:06:12;;;;;;;16.00;14.00;;;;;;;24.37;60.01;100239.13;105339;1254;60460;-67
2023/06/19 00:08:43;;;;;;;15.40;13.90;;;;;;;24.40;59.82;100235.63;105475;1254;64981;-68
2023/06/19 00:11:10;;;;;;;17.50;13.90;;;;;;;24.40;59.81;100229.02;105458;1257;60455;-67
2023/06/19 00:13:39;;;;;;;16.60;13.80;;;;;;;24.50;59.63;100229.60;105392;1254;63766;-66
2023/06/19 00:16:07;;;;;;;18.20;14.60;;;;;;;24.53;59.49;100228.83;105478;1253;60467;-65
2023/06/19 00:18:39;;;;;;;15.40;13.10;;;;;;;24.51;59.18;100229.30;105337;1254;60556;-69
2023/06/19 00:21:08;;;;;;;18.20;16.30;;;;;;;24.48;58.78;100224.83;106057;1254;63708;-65
2023/06/19 00:23:36;;;;;;;18.40;14.30;;;;;;;24.37;58.61;100226.84;106032;1254;62119;-67
2023/06/19 00:26:03;;;;;;;16.40;14.20;;;;;;;24.31;58.60;100229.02;105308;1254;63762;-67
2023/06/19 00:28:31;;;;;;;16.60;14.80;;;;;;;24.32;58.81;100225.92;105313;1254;60473;-66
2023/06/19 00:31:00;;;;;;;16.60;15.00;;;;;;;24.35;59.09;100228.30;105399;1254;60547;-66
2023/06/19 00:33:29;;;;;;;20.20;15.60;;;;;;;24.40;59.08;100228.30;105294;1258;64877;-65
2023/06/19 00:35:56;;;;;;;14.40;12.90;;;;;;;24.42;59.46;100227.63;105585;1253;61411;-65
2023/06/19 00:38:24;;;;;;;15.50;13.80;;;;;;;24.51;59.55;100224.98;105259;1252;64346;-66
2023/06/19 00:40:51;;;;;;;16.20;13.60;;;;;;;24.56;58.24;100223.05;105307;1256;60561;-65
2023/06/19 00:43:19;;;;;;;15.20;13.70;;;;;;;24.48;57.83;100220.72;105281;1259;60682;-66
2023/06/19 00:45:46;;;;;;;15.90;14.20;;;;;;;24.45;57.87;100221.27;105348;1253;64866;-63
2023/06/19 00:48:14;;;;;;;14.60;13.00;;;;;;;24.42;58.05;100220.77;105593;1258;61367;-66
2023/06/19 00:50:42;;;;;;;15.10;12.80;;;;;;;24.44;58.15;100225.38;105304;1257;62448;-63
2023/06/19 00:53:10;;;;;;;14.60;13.10;;;;;;;24.43;58.63;100228.99;105467;1258;60568;-67
2023/06/19 00:55:37;;;;;;;17.00;13.50;;;;;;;24.45;59.03;100227.27;105389;1257;60358;-67
2023/06/19 00:58:05;;;;;;;17.50;14.00;;;;;;;24.47;59.02;100226.47;105350;1259;64910;-64
2023/06/19 01:00:33;;;;;;;15.30;13.70;;;;;;;24.47;58.53;100228.71;105231;1254;60430;-66
2023/06/19 01:03:00;;;;;;;14.70;13.10;;;;;;;24.47;58.51;100230.91;105222;1257;63658;-65
2023/06/19 01:05:28;;;;;;;15.90;13.60;;;;;;;24.44;58.74;100233.48;105270;1254;60546;-64
2023/06/19 01:08:03;;;;;;;15.50;13.60;;;;;;;24.41;58.94;100233.39;105194;1253;60703;-65
2023/06/19 01:10:43;;;;;;;15.80;14.20;;;;;;;24.37;59.06;100238.63;105569;1258;64889;-65
2023/06/19 01:13:21;;;;;;;16.10;12.20;;;;;;;24.36;59.04;100240.00;105348;1261;61469;-66
2023/06/19 01:15:50;;;;;;;14.10;12.20;;;;;;;24.36;58.91;100239.13;105508;1256;63847;-66
2023/06/19 01:18:17;;;;;;;14.90;13.20;;;;;;;24.37;58.92;100243.22;105206;1256;61583;-66
2023/06/19 01:20:45;;;;;;;15.70;13.10;;;;;;;24.38;59.06;100243.63;105453;1254;60358;-65
2023/06/19 01:23:12;;;;;;;13.90;12.40;;;;;;;24.38;59.08;100244.09;105228;1253;63684;-65
2023/06/19 01:25:40;;;;;;;14.50;13.00;;;;;;;24.35;58.56;100247.34;105368;1254;61364;-65
2023/06/19 01:28:10;;;;;;;18.90;12.70;;;;;;;24.33;58.08;100247.31;105290;1254;63653;-64
2023/06/19 01:30:40;;;;;;;16.50;13.20;;;;;;;24.26;57.57;100243.13;105644;1257;60555;-64
2023/06/19 01:33:15;;;;;;;15.80;12.50;;;;;;;24.18;57.23;100243.59;105391;1253;241307;-65
2023/06/19 01:38:21;;;;;;;16.50;12.70;;;;;;;24.00;57.96;100248.63;102393;1293;600650;-66
2023/06/19 01:40:48;;;;;;;16.70;12.40;;;;;;;24.19;57.16;100250.33;104369;1269;59296;-66
2023/06/19 01:43:16;;;;;;;13.50;12.10;;;;;;;24.26;56.54;100253.10;104449;1273;59325;-64
2023/06/19 01:45:44;;;;;;;14.20;12.50;;;;;;;24.35;56.22;100253.20;104578;1272;63837;-68
2023/06/19 01:48:13;;;;;;;14.10;12.20;;;;;;;24.36;55.98;100252.58;104525;1267;61327;-67
2023/06/19 01:50:47;;;;;;;13.90;12.50;;;;;;;24.34;55.77;100251.39;104402;1272;287451;-66
2023/06/19 01:53:15;;;;;;;14.50;12.20;;;;;;;24.33;55.49;100249.59;104616;1263;59373;-70
2023/06/19 01:55:43;;;;;;;17.80;12.80;;;;;;;24.32;55.31;100249.00;104883;1264;59969;-66
2023/06/19 01:58:10;;;;;;;14.20;12.40;;;;;;;24.30;54.67;100249.43;104493;1269;63304;-66
2023/06/19 02:00:38;;;;;;;15.20;12.70;;;;;;;24.28;54.82;100249.85;104568;1263;61928;-66
2023/06/19 02:03:05;;;;;;;14.40;11.80;;;;;;;24.27;54.80;100249.33;104612;1270;62576;-65
2023/06/19 02:05:34;;;;;;;13.60;12.20;;;;;;;24.24;54.70;100251.21;104696;1266;59653;-64
2023/06/19 02:08:01;;;;;;;16.90;12.40;;;;;;;24.21;54.42;100257.52;104683;1263;59761;-65
2023/06/19 02:10:29;;;;;;;15.80;11.70;;;;;;;24.18;53.82;100262.78;104680;1269;64068;-65
2023/06/19 02:12:56;;;;;;;13.70;12.00;;;;;;;24.14;53.31;100262.81;104322;1267;61350;-64
2023/06/19 02:15:24;;;;;;;13.70;12.10;;;;;;;24.10;52.91;100265.18;104951;1266;63755;-69
2023/06/19 02:17:54;;;;;;;15.10;12.60;;;;;;;24.07;53.01;100266.89;104633;1264;59726;-66
2023/06/19 02:20:24;;;;;;;14.30;12.20;;;;;;;24.04;52.93;100268.67;104797;1264;59738;-67
2023/06/19 02:22:56;;;;;;;14.60;12.00;;;;;;;24.01;52.67;100268.41;104757;1268;64134;-69
2023/06/19 02:25:23;;;;;;;13.40;11.60;;;;;;;23.99;52.46;100272.35;104550;1269;60104;-65
2023/06/19 02:27:51;;;;;;;15.20;11.70;;;;;;;23.95;52.61;100270.34;104625;1264;63820;-62
2023/06/19 02:30:18;;;;;;;14.50;11.80;;;;;;;23.92;52.76;100270.96;104804;1267;59733;-62
2023/06/19 02:32:46;;;;;;;13.10;11.70;;;;;;;23.91;53.28;100275.16;104572;1264;59887;-62
2023/06/19 02:35:15;;;;;;;15.30;11.30;;;;;;;23.92;53.22;100272.52;104736;1264;64120;-64
2023/06/19 02:37:42;;;;;;;14.40;11.40;;;;;;;23.95;53.39;100275.14;104743;1269;61179;-59
2023/06/19 02:40:11;;;;;;;14.20;12.20;;;;;;;23.95;53.71;100274.18;104903;1262;64404;-65
2023/06/19 02:42:38;;;;;;;14.40;11.10;;;;;;;23.95;53.57;100276.09;104913;1264;59772;-60
2023/06/19 02:45:07;;;;;;;18.60;11.80;;;;;;;23.94;53.35;100276.50;105372;1260;59747;-64
2023/06/19 02:47:34;;;;;;;12.00;10.20;;;;;;;23.95;53.09;100279.98;105233;1266;64073;-66
2023/06/19 02:50:03;;;;;;;15.30;11.10;;;;;;;23.97;52.82;100277.73;104935;1261;61372;-66
2023/06/19 02:52:31;;;;;;;12.70;10.60;;;;;;;23.97;52.76;100277.57;106477;1263;64366;-66
2023/06/19 02:54:59;;;;;;;13.80;10.70;;;;;;;23.98;52.53;100277.96;105015;1260;59734;-68
2023/06/19 02:57:26;;;;;;;14.10;11.00;;;;;;;23.88;52.56;100275.16;104818;1261;59756;-68
2023/06/19 02:59:54;;;;;;;14.00;11.20;;;;;;;23.82;52.59;100273.18;104877;1260;63015;-60
2023/06/19 03:02:21;;;;;;;15.90;10.10;;;;;;;23.85;52.77;100271.80;104865;1260;61317;-60
2023/06/19 03:04:50;;;;;;;13.40;10.90;;;;;;;23.94;52.50;100275.67;104886;1263;63767;-61
2023/06/19 03:07:18;;;;;;;14.50;11.30;;;;;;;23.94;52.45;100276.34;104975;1267;59769;-59
2023/06/19 03:09:46;;;;;;;14.40;11.70;;;;;;;23.94;52.48;100271.33;104882;1260;59682;-60
2023/06/19 03:12:14;;;;;;;13.50;10.50;;;;;;;23.93;52.53;100269.10;104979;1260;64093;-58
2023/06/19 03:14:41;;;;;;;11.90;10.40;;;;;;;23.92;52.48;100270.84;104916;1260;61308;-59
2023/06/19 03:17:09;;;;;;;12.70;10.30;;;;;;;23.90;52.43;100267.17;104922;1263;63766;-59
2023/06/19 03:19:37;;;;;;;13.60;12.00;;;;;;;23.90;52.52;100267.96;104723;1263;59782;-60
2023/06/19 03:22:05;;;;;;;14.60;11.10;;;;;;;23.90;52.78;100267.55;106446;1262;59660;-60
2023/06/19 03:24:32;;;;;;;14.40;10.90;;;;;;;23.91;52.72;100269.07;104872;1260;62919;-60
2023/06/19 03:27:12;;;;;;;12.30;10.60;;;;;;;23.91;52.39;100266.88;104959;1260;61960;-63
2023/06/19 03:29:40;;;;;;;12.40;11.00;;;;;;;23.92;52.47;100268.16;104809;1262;63878;-59
2023/06/19 03:32:08;;;;;;;15.40;11.00;;;;;;;23.93;52.66;100267.45;104703;1263;59647;-63
2023/06/19 03:34:36;;;;;;;12.60;10.70;;;;;;;23.94;52.57;100267.58;104811;1260;59809;-61
2023/06/19 03:37:06;;;;;;;16.00;11.70;;;;;;;23.97;52.36;100262.40;104784;1260;64114;-59
2023/06/19 03:39:34;;;;;;;12.20;10.70;;;;;;;24.00;52.45;100262.89;104954;1260;61468;-59
2023/06/19 03:42:06;;;;;;;13.40;10.70;;;;;;;24.01;52.68;100264.23;104822;1263;64229;-59
2023/06/19 03:44:34;;;;;;;12.40;10.10;;;;;;;24.07;52.56;100267.35;105143;1266;59787;-69
2023/06/19 03:47:01;;;;;;;15.80;11.10;;;;;;;24.16;52.22;100268.33;104816;1263;59756;-68
2023/06/19 03:49:29;;;;;;;12.80;10.70;;;;;;;24.21;52.42;100269.34;104817;1267;64663;-68
2023/06/19 03:51:57;;;;;;;15.10;11.00;;;;;;;24.25;52.36;100271.59;104873;1261;61412;-69
2023/06/19 03:54:26;;;;;;;13.50;10.40;;;;;;;24.30;52.13;100269.73;104897;1263;63792;-66
2023/06/19 03:56:53;;;;;;;16.90;11.30;;;;;;;24.33;51.95;100269.10;104784;1263;59775;-69
2023/06/19 03:59:21;;;;;;;14.80;11.20;;;;;;;24.36;51.79;100267.27;104701;1267;59734;-70
2023/06/19 04:01:49;;;;;;;13.70;10.00;;;;;;;24.39;51.67;100266.83;104434;1266;64068;-69
2023/06/19 04:04:16;;;;;;;13.80;10.90;;;;;;;24.42;51.55;100267.89;104557;1261;61841;-68
2023/06/19 04:06:46;;;;;;;13.30;11.30;;;;;;;24.44;51.38;100268.04;104719;1263;63863;-67
2023/06/19 04:09:14;;;;;;;13.40;10.60;;;;;;;24.47;51.32;100264.45;104706;1261;59833;-68
2023/06/19 04:11:41;;;;;;;12.10;10.70;;;;;;;24.48;51.24;100267.64;104675;1266;60658;-68
2023/06/19 04:14:09;;;;;;;13.30;10.80;;;;;;;24.52;51.14;100269.35;104832;1260;62970;-63
2023/06/19 04:16:37;;;;;;;13.00;11.00;;;;;;;24.54;51.12;100269.34;104808;1262;60308;-59
2023/06/19 04:19:05;;;;;;;14.90;11.50;;;;;;;24.57;51.05;100269.84;104771;1260;62473;-60
2023/06/19 04:21:32;;;;;;;16.40;11.20;;;;;;;24.59;51.47;100270.40;104813;1261;59736;-62
2023/06/19 04:24:00;;;;;;;16.50;11.40;;;;;;;24.63;51.67;100272.20;104969;1261;59667;-62
2023/06/19 04:26:28;;;;;;;14.60;11.30;;;;;;;24.67;52.12;100273.58;104928;1263;64179;-59
2023/06/19 04:28:56;;;;;;;14.30;10.20;;;;;;;24.72;51.96;100274.29;105063;1260;61396;-61
2023/06/19 04:31:26;;;;;;;16.70;11.30;;;;;;;24.79;51.67;100272.38;104980;1260;62658;-66
2023/06/19 04:33:56;;;;;;;13.60;11.10;;;;;;;24.84;51.56;100271.30;104790;1266;59759;-65
2023/06/19 04:36:23;;;;;;;15.70;11.60;;;;;;;24.90;51.22;100271.00;105012;1265;59515;-60
2023/06/19 04:38:51;;;;;;;14.60;11.90;;;;;;;24.97;50.66;100269.08;104869;1260;74070;-63
2023/06/19 04:41:19;;;;;;;17.50;11.50;;;;;;;25.02;50.44;100268.69;104806;1261;61468;-64
2023/06/19 04:43:47;;;;;;;17.10;11.10;;;;;;;25.06;50.80;100268.86;104699;1260;63879;-66
2023/06/19 04:46:20;;;;;;;14.30;11.90;;;;;;;25.10;50.76;100272.28;104911;1261;59649;-63
2023/06/19 04:48:50;;;;;;;15.40;11.80;;;;;;;25.13;50.51;100278.67;104821;1266;59619;-66
2023/06/19 04:51:20;;;;;;;14.20;12.00;;;;;;;25.16;50.97;100283.35;104910;1261;64169;-65
2023/06/19 04:53:48;;;;;;;14.80;11.80;;;;;;;25.21;50.77;100285.73;105002;1260;62386;-63
2023/06/19 04:56:16;;;;;;;16.80;12.20;;;;;;;25.25;50.31;100282.98;104973;1263;63842;-65
2023/06/19 04:58:47;;;;;;;16.60;11.70;;;;;;;25.30;50.65;100282.51;104895;1265;59775;-64
2023/06/19 05:01:15;;;;;;;14.50;11.20;;;;;;;25.34;50.53;100285.23;105122;1266;59682;-61
2023/06/19 05:03:45;;;;;;;17.80;12.20;;;;;;;25.37;50.41;100285.38;104998;1263;64124;-65
2023/06/19 05:06:12;;;;;;;16.60;11.50;;;;;;;25.40;50.14;100287.83;105018;1268;60303;-66
2023/06/19 05:08:40;;;;;;;17.80;12.80;;;;;;;25.45;50.27;100286.29;104889;1263;63758;-65
2023/06/19 05:11:07;;;;;;;13.70;11.80;;;;;;;25.51;50.63;100284.23;105023;1268;59750;-66
2023/06/19 05:13:35;;;;;;;22.10;12.20;;;;;;;25.60;50.68;100284.80;104912;1261;59711;-65
2023/06/19 05:16:03;;;;;;;16.30;11.50;;;;;;;25.68;50.77;100285.24;105283;1256;62842;-65
2023/06/19 05:18:31;;;;;;;16.50;11.80;;;;;;;25.74;50.73;100284.64;106083;1257;61460;-67
2023/06/19 05:20:58;;;;;;;17.00;10.50;;;;;;;25.82;50.18;100286.20;105235;1260;64480;-66
2023/06/19 05:23:26;;;;;;;17.50;11.60;;;;;;;25.91;49.53;100283.27;105216;1262;59592;-65
2023/06/19 05:25:53;;;;;;;15.80;10.40;;;;;;;26.01;49.15;100282.77;105293;1262;59631;-60
2023/06/19 05:28:21;;;;;;;13.20;10.60;;;;;;;26.08;48.03;100285.06;105246;1257;62864;-65
2023/06/19 05:30:50;;;;;;;15.50;10.20;;;;;;;26.14;47.62;100288.48;105418;1258;60343;-64
2023/06/19 05:33:17;;;;;;;13.80;10.20;;;;;;;26.20;47.12;100294.34;105236;1262;64598;-64
2023/06/19 05:35:51;;;;;;;13.90;10.90;;;;;;;26.23;46.46;100292.05;106253;1257;59657;-64
2023/06/19 05:38:19;;;;;;;12.20;10.00;;;;;;;26.29;46.37;100293.95;105364;1257;59625;-64
2023/06/19 05:40:47;;;;;;;14.40;10.70;;;;;;;26.36;45.95;100293.52;105429;1262;64172;-65
2023/06/19 05:43:14;;;;;;;14.70;10.30;;;;;;;26.41;45.28;100291.76;105414;1257;61384;-65
2023/06/19 05:45:42;;;;;;;16.10;11.60;;;;;;;26.43;45.54;100291.17;105090;1258;64885;-65
2023/06/19 05:48:10;;;;;;;13.00;10.50;;;;;;;26.45;45.18;100292.98;105241;1258;60569;-66
2023/06/19 05:50:37;;;;;;;14.20;11.20;;;;;;;26.48;44.75;100299.33;105279;1263;60488;-63
2023/06/19 05:53:05;;;;;;;17.00;11.90;;;;;;;26.48;44.73;100300.33;105299;1257;65015;-64
2023/06/19 05:55:32;;;;;;;15.00;11.30;;;;;;;26.50;44.55;100301.17;105380;1258;61526;-66
2023/06/19 05:58:01;;;;;;;13.30;10.90;;;;;;;26.53;44.72;100302.70;105302;1258;63755;-63
2023/06/19 06:00:29;;;;;;;16.10;11.60;;;;;;;26.53;44.86;100299.34;105288;1260;60593;-67
2023/06/19 06:02:59;;;;;;;14.00;11.10;;;;;;;26.55;44.76;100300.64;105225;1261;60642;-57
2023/06/19 06:05:27;;;;;;;13.50;10.70;;;;;;;26.59;44.59;100302.48;105289;1257;64954;-58
2023/06/19 06:07:55;;;;;;;15.30;11.40;;;;;;;26.67;44.39;100300.06;105194;1262;62124;-57
2023/06/19 06:10:23;;;;;;;14.30;10.30;;;;;;;26.75;44.43;100298.05;105125;1262;72651;-60
2023/06/19 06:12:51;;;;;;;13.10;10.60;;;;;;;26.81;43.92;100300.14;105358;1257;60544;-60
2023/06/19 06:15:18;;;;;;;13.50;10.00;;;;;;;26.87;42.93;100302.71;105281;1257;60507;-61
2023/06/19 06:17:46;;;;;;;14.90;10.20;;;;;;;26.90;41.88;100304.20;105272;1257;63799;-60
2023/06/19 06:20:14;;;;;;;16.50;10.40;;;;;;;26.93;42.15;100301.30;105293;1257;61496;-61
2023/06/19 06:22:42;;;;;;;12.90;10.20;;;;;;;26.95;42.38;100304.41;105160;1260;63757;-54
2023/06/19 06:25:10;;;;;;;16.30;10.00;;;;;;;26.97;41.40;100303.04;108125;1256;60168;-56
2023/06/19 06:27:40;;;;;;;13.70;10.90;;;;;;;27.02;40.82;100304.58;105124;1262;60442;-52
2023/06/19 06:30:09;;;;;;;12.10;9.30;;;;;;;27.03;40.30;100306.23;106795;1257;65389;-57
2023/06/19 06:32:36;;;;;;;14.20;9.70;;;;;;;27.05;40.68;100305.90;105168;1258;61322;-58
2023/06/19 06:35:04;;;;;;;12.80;9.80;;;;;;;27.09;41.07;100306.04;105262;1257;63744;-59
2023/06/19 06:37:32;;;;;;;12.70;9.70;;;;;;;27.15;40.97;100309.31;105231;1256;60453;-57
2023/06/19 06:39:59;;;;;;;12.20;9.70;;;;;;;27.21;41.08;100311.31;104996;1261;60540;-57
2023/06/19 06:42:26;;;;;;;16.10;9.70;;;;;;;27.28;41.41;100313.10;105320;1255;64332;-57
2023/06/19 06:44:54;;;;;;;11.30;9.70;;;;;;;27.34;41.48;100317.77;105074;1263;61441;-59
2023/06/19 06:47:21;;;;;;;11.80;10.20;;;;;;;27.41;41.41;100321.89;105285;1263;63655;-57
2023/06/19 06:49:49;;;;;;;11.50;9.40;;;;;;;27.47;40.63;100320.73;105364;1261;60928;-57
2023/06/19 06:52:16;;;;;;;14.00;10.10;;;;;;;27.51;40.28;100321.19;105330;1254;61665;-58
2023/06/19 06:54:44;;;;;;;11.70;9.70;;;;;;;27.56;40.75;100324.00;105346;1257;64861;-58
2023/06/19 06:57:12;;;;;;;12.90;10.50;;;;;;;27.60;40.95;100324.73;105358;1257;61497;-58
2023/06/19 06:59:39;;;;;;;14.00;10.10;;;;;;;27.63;40.52;100320.80;105357;1260;63669;-57
2023/06/19 07:02:07;;;;;;;12.60;10.60;;;;;;;27.66;39.70;100319.58;105092;1258;60489;-57
2023/06/19 07:04:35;;;;;;;15.70;11.00;;;;;;;27.69;39.44;100319.52;105418;1257;60521;-58
2023/06/19 07:07:05;;;;;;;12.10;10.10;;;;;;;27.73;39.02;100319.66;105275;1262;64887;-59
2023/06/19 07:09:33;;;;;;;15.80;10.70;;;;;;;27.74;39.15;100321.63;105327;1255;61298;-57
2023/06/19 07:12:04;;;;;;;16.60;10.80;;;;;;;27.83;39.41;100319.33;105342;1260;63662;-60
2023/06/19 07:14:31;;;;;;;14.30;10.30;;;;;;;27.98;39.00;100322.73;105349;1257;60630;-57
2023/06/19 07:16:58;;;;;;;12.90;9.70;;;;;;;28.09;38.17;100324.91;105277;1262;60436;-58
2023/06/19 07:19:26;;;;;;;14.00;10.60;;;;;;;28.16;37.96;100325.04;105418;1258;64919;-59
2023/06/19 07:21:54;;;;;;;11.00;8.80;;;;;;;28.24;37.66;100323.34;105177;1262;60818;-58
2023/06/19 07:24:23;;;;;;;11.50;8.90;;;;;;;28.25;37.39;100317.33;105397;1259;63754;-58
2023/06/19 07:26:51;;;;;;;13.10;10.20;;;;;;;28.38;37.33;100312.48;105293;1259;60428;-58
2023/06/19 07:29:19;;;;;;;13.80;9.60;;;;;;;28.49;37.46;100313.64;105398;1257;60497;-59
2023/06/19 07:31:47;;;;;;;12.40;10.00;;;;;;;28.60;36.94;100314.07;105257;1257;64862;-58
2023/06/19 07:34:14;;;;;;;10.90;8.50;;;;;;;28.70;37.32;100312.62;105401;1257;61504;-58
2023/06/19 07:36:42;;;;;;;12.00;9.00;;;;;;;28.76;36.94;100313.41;105313;1260;63689;-58
2023/06/19 07:39:09;;;;;;;11.50;8.80;;;;;;;28.84;35.92;100314.08;105188;1260;60569;-58
2023/06/19 07:41:37;;;;;;;11.10;8.50;;;;;;;28.88;35.17;100315.20;105290;1263;60462;-58
2023/06/19 07:44:04;;;;;;;11.90;9.80;;;;;;;28.88;34.85;100319.02;105374;1262;66040;-59
2023/06/19 07:46:32;;;;;;;11.60;8.90;;;;;;;28.88;34.67;100317.02;105511;1261;60427;-58
2023/06/19 07:49:00;;;;;;;16.60;9.20;;;;;;;28.93;34.44;100317.70;105172;1260;63688;-60
2023/06/19 07:51:27;;;;;;;13.00;10.10;;;;;;;28.97;34.69;100318.38;105269;1262;61087;-59
2023/06/19 07:53:55;;;;;;;13.40;8.80;;;;;;;28.99;33.84;100320.49;105327;1257;60501;-58
2023/06/19 07:56:22;;;;;;;13.50;8.80;;;;;;;28.97;34.26;100325.84;105208;1258;63694;-56
2023/06/19 07:58:50;;;;;;;13.10;9.70;;;;;;;29.01;33.83;100328.71;105405;1255;61320;-57
2023/06/19 08:01:17;;;;;;;14.30;9.50;;;;;;;29.02;33.26;100325.17;105245;1261;63806;-59
2023/06/19 08:03:45;;;;;;;12.70;9.70;;;;;;;29.02;33.64;100322.09;105114;1262;60385;-58
2023/06/19 08:06:13;;;;;;;12.40;8.60;;;;;;;29.05;33.73;100323.70;105237;1258;60508;-57
2023/06/19 08:08:40;;;;;;;12.10;8.40;;;;;;;29.08;33.21;100324.83;105291;1263;64937;-58
2023/06/19 08:11:08;;;;;;;12.30;8.20;;;;;;;29.08;33.14;100325.54;105300;1263;60925;-59
2023/06/19 08:13:35;;;;;;;11.90;9.00;;;;;;;29.11;33.62;100327.45;105350;1261;63760;-57
2023/06/19 08:16:03;;;;;;;11.90;9.10;;;;;;;29.18;33.20;100329.71;105386;1257;60668;-57
2023/06/19 08:18:31;;;;;;;11.50;9.10;;;;;;;29.26;33.40;100331.36;105353;1261;60367;-58
2023/06/19 08:20:58;;;;;;;13.50;9.60;;;;;;;29.33;32.81;100333.02;105259;1263;64939;-59
2023/06/19 08:23:26;;;;;;;14.50;9.50;;;;;;;29.34;32.48;100333.74;105416;1263;61353;-59
2023/06/19 08:25:54;;;;;;;13.70;9.30;;;;;;;29.36;33.04;100334.27;105303;1260;63677;-59
2023/06/19 08:28:22;;;;;;;11.70;8.20;;;;;;;29.44;33.74;100335.14;105528;1257;60584;-59
2023/06/19 08:30:49;;;;;;;11.80;9.00;;;;;;;29.53;33.12;100333.85;105237;1262;60824;-59
2023/06/19 08:33:17;;;;;;;12.20;9.40;;;;;;;29.56;32.86;100336.17;105333;1257;63845;-57
2023/06/19 08:35:46;;;;;;;11.70;8.80;;;;;;;29.59;33.07;100339.90;105192;1262;60418;-58
2023/06/19 08:38:14;;;;;;;12.30;8.80;;;;;;;29.62;32.83;100340.16;105367;1260;63760;-57
2023/06/19 08:40:42;;;;;;;12.10;8.50;;;;;;;29.63;32.68;100336.33;105364;1258;60539;-59
2023/06/19 08:43:10;;;;;;;11.40;9.20;;;;;;;29.65;32.63;100336.63;105435;1258;60556;-59
2023/06/19 08:45:37;;;;;;;12.60;8.40;;;;;;;29.67;32.14;100334.80;105272;1263;64847;-60
2023/06/19 08:48:06;;;;;;;15.10;9.20;;;;;;;29.69;32.75;100339.34;105285;1263;60450;-59
2023/06/19 08:50:39;;;;;;;11.60;9.10;;;;;;;29.72;32.57;100341.43;105286;1260;63784;-60
2023/06/19 08:53:06;;;;;;;13.00;9.10;;;;;;;29.71;32.38;100339.75;105392;1258;60940;-61
2023/06/19 08:55:35;;;;;;;11.80;9.20;;;;;;;29.69;32.28;100341.39;105307;1257;60899;-59
2023/06/19 08:58:03;;;;;;;10.70;7.90;;;;;;;29.69;32.53;100343.55;105328;1257;64876;-59
2023/06/19 09:00:30;;;;;;;11.60;9.20;;;;;;;29.75;32.86;100343.81;105217;1258;61316;-58
2023/06/19 09:03:01;;;;;;;11.50;8.90;;;;;;;29.83;31.84;100339.59;105218;1258;63735;-56
2023/06/19 09:05:43;;;;;;;11.50;9.30;;;;;;;29.93;32.01;100339.00;105314;1257;60589;-60
2023/06/19 09:08:15;;;;;;;10.90;8.20;;;;;;;30.03;32.36;100336.41;105352;1262;60367;-60
2023/06/19 09:10:59;;;;;;;10.50;8.60;;;;;;;30.13;32.36;100332.86;105286;1262;64847;-59
2023/06/19 09:13:30;;;;;;;11.10;8.40;;;;;;;30.27;32.81;100333.66;106042;1263;69087;-58
2023/06/19 09:16:03;;;;;;;12.70;8.60;;;;;;;30.41;32.64;100333.60;105375;1261;63834;-58
2023/06/19 09:18:32;;;;;;;12.00;8.00;;;;;;;30.52;32.12;100331.86;105240;1255;60457;-59
2023/06/19 09:20:59;;;;;;;12.10;8.50;;;;;;;30.65;32.00;100333.18;105418;1262;60451;-60
2023/06/19 09:23:27;;;;;;;11.70;8.60;;;;;;;30.72;30.71;100333.09;105163;1262;64875;-59
2023/06/19 09:25:57;;;;;;;12.30;9.10;;;;;;;30.81;30.67;100329.52;105230;1258;61486;-58
2023/06/19 09:28:27;;;;;;;10.70;8.20;;;;;;;30.88;29.92;100330.44;105284;1262;63767;-58
2023/06/19 09:30:59;;;;;;;9.80;7.20;;;;;;;30.94;30.36;100331.86;105367;1262;60482;-59
2023/06/19 09:33:28;;;;;;;10.20;7.70;;;;;;;31.02;30.58;100333.78;105387;1259;60464;-59
2023/06/19 09:35:57;;;;;;;17.10;8.80;;;;;;;31.10;29.65;100330.58;106019;1257;63806;-59
2023/06/19 09:38:29;;;;;;;12.50;8.00;;;;;;;31.15;29.97;100329.59;105360;1262;61423;-59
2023/06/19 09:40:59;;;;;;;12.30;8.90;;;;;;;31.21;29.06;100327.66;105166;1262;62451;-59
2023/06/19 09:43:40;;;;;;;12.20;8.60;;;;;;;31.20;28.03;100323.52;105225;1260;60616;-60
2023/06/19 09:46:08;;;;;;;11.50;8.20;;;;;;;31.17;28.88;100323.61;105401;1261;60558;-58
2023/06/19 09:48:40;;;;;;;11.70;8.30;;;;;;;31.21;29.07;100321.74;105133;1262;64950;-61
2023/06/19 09:51:18;;;;;;;11.00;8.30;;;;;;;31.25;28.42;100321.55;105288;1257;61622;-65
2023/06/19 09:53:46;;;;;;;9.70;7.40;;;;;;;31.26;28.14;100318.14;105408;1258;63736;-61
2023/06/19 09:56:15;;;;;;;12.00;8.70;;;;;;;31.29;28.84;100315.33;105582;1262;60563;-62
2023/06/19 09:58:43;;;;;;;11.20;8.40;;;;;;;31.32;28.71;100311.44;105734;1257;60464;-60
2023/06/19 10:01:11;;;;;;;11.20;8.60;;;;;;;31.34;29.14;100311.93;105468;1263;64926;-60
2023/06/19 10:03:40;;;;;;;9.80;8.20;;;;;;;31.37;28.34;100309.61;105240;1263;60345;-61
2023/06/19 10:06:16;;;;;;;11.90;8.70;;;;;;;31.37;28.79;100311.83;105572;1263;64170;-60
2023/06/19 10:08:44;;;;;;;11.00;9.20;;;;;;;31.43;29.78;100314.64;105062;1260;60486;-63
2023/06/19 10:11:12;;;;;;;16.60;8.60;;;;;;;31.50;28.65;100311.44;105067;1263;60549;-59
2023/06/19 10:13:41;;;;;;;11.40;8.60;;;;;;;31.52;28.66;100309.98;105056;1261;63709;-60
2023/06/19 10:16:23;;;;;;;16.50;8.50;;;;;;;31.55;29.32;100311.36;105824;1263;60499;-62
2023/06/19 10:18:51;;;;;;;10.70;8.70;;;;;;;31.62;29.17;100308.46;105362;1258;63843;-59
2023/06/19 10:21:19;;;;;;;12.60;7.10;;;;;;;31.70;29.25;100307.20;106298;1258;60721;-61
2023/06/19 10:23:57;;;;;;;14.90;8.40;;;;;;;31.75;28.55;100305.70;105697;1261;60389;-65
2023/06/19 10:26:35;;;;;;;12.70;8.10;;;;;;;31.80;28.79;100301.41;105688;1261;64929;-61
2023/06/19 10:29:13;;;;;;;13.50;9.00;;;;;;;31.86;29.83;100292.35;105587;1257;60544;-59
2023/06/19 10:31:41;;;;;;;15.10;9.70;;;;;;;31.96;30.52;100290.96;105167;1261;64035;-59
2023/06/19 10:34:08;;;;;;;16.40;9.70;;;;;;;32.03;30.60;100287.94;104911;1260;60553;-59
2023/06/19 10:36:36;;;;;;;12.30;8.80;;;;;;;32.10;30.42;100284.55;105266;1258;60572;-58
2023/06/19 10:39:04;;;;;;;14.10;9.30;;;;;;;32.12;30.58;100281.83;105224;1257;66094;-60
2023/06/19 10:41:31;;;;;;;13.40;10.10;;;;;;;32.05;30.48;100278.30;105186;1260;61363;-58
2023/06/19 10:44:10;;;;;;;16.40;9.30;;;;;;;31.97;30.25;100280.84;105645;1260;63870;-59
2023/06/19 10:46:38;;;;;;;16.50;9.70;;;;;;;31.90;30.79;100278.27;105455;1260;60852;-59
2023/06/19 10:49:07;;;;;;;16.50;10.40;;;;;;;31.90;31.35;100276.36;105296;1263;60713;-60
2023/06/19 10:51:38;;;;;;;16.00;10.00;;;;;;;31.92;31.06;100275.34;105109;1262;67360;-60
2023/06/19 10:54:06;;;;;;;13.30;9.40;;;;;;;31.96;31.14;100271.75;105080;1261;62098;-59
2023/06/19 10:56:34;;;;;;;13.30;9.60;;;;;;;31.95;30.55;100269.85;105510;1262;62592;-59
2023/06/19 10:59:02;;;;;;;18.20;11.00;;;;;;;31.92;30.90;100265.59;105021;1260;60584;-60
2023/06/19 11:01:37;;;;;;;16.20;9.40;;;;;;;31.93;31.03;100265.60;106984;1261;62242;-60
2023/06/19 11:04:09;;;;;;;14.50;9.70;;;;;;;31.96;30.41;100257.59;105173;1257;64941;-59
2023/06/19 11:06:37;;;;;;;14.70;9.20;;;;;;;32.00;30.28;100257.02;105227;1258;61366;-58
2023/06/19 11:09:08;;;;;;;16.40;10.50;;;;;;;32.04;30.23;100250.70;105415;1263;62575;-59
2023/06/19 11:11:36;;;;;;;14.60;8.30;;;;;;;32.08;30.29;100249.87;105631;1262;60417;-60
2023/06/19 11:14:04;;;;;;;11.50;8.60;;;;;;;32.12;29.89;100244.88;105090;1268;60451;-59